createdAt,value
2022-10-10T00:00:19.335Z,9.60
2022-10-10T00:03:08.434Z,9.60
2022-10-10T00:05:57.369Z,9.70
2022-10-10T00:08:46.417Z,9.70
2022-10-10T00:11:36.755Z,9.60
2022-10-10T00:14:25.324Z,9.60
2022-10-10T00:17:13.884Z,9.50
2022-10-10T00:20:02.586Z,9.40
2022-10-10T00:22:51.396Z,9.30
2022-10-10T00:25:40.221Z,9.20
2022-10-10T00:28:30.226Z,9.00
2022-10-10T00:31:19.195Z,9.00
2022-10-10T00:34:07.756Z,9.00
2022-10-10T00:36:56.327Z,9.10
2022-10-10T00:39:44.905Z,9.10
2022-10-10T00:42:33.495Z,9.20
2022-10-10T00:45:33.232Z,9.40
2022-10-10T00:48:25.459Z,9.40
2022-10-10T00:51:15.896Z,9.50
2022-10-10T00:54:07.447Z,9.60
2022-10-10T00:56:59.173Z,9.60
2022-10-10T00:59:48.193Z,9.60
2022-10-10T01:02:38.424Z,9.50
2022-10-10T01:05:27.202Z,9.40
2022-10-10T01:08:16.928Z,9.40
2022-10-10T01:11:19.830Z,9.40
2022-10-10T01:14:21.215Z,9.30
2022-10-10T01:17:19.548Z,9.20
2022-10-10T01:20:38.882Z,9.30
2022-10-10T01:24:13.161Z,9.30
2022-10-10T01:27:31.256Z,9.40
2022-10-10T01:30:24.405Z,9.50
2022-10-10T01:33:17.172Z,9.60
2022-10-10T01:36:14.635Z,9.70
2022-10-10T01:39:10.992Z,9.70
2022-10-10T01:42:04.533Z,9.60
2022-10-10T01:44:54.068Z,9.60
2022-10-10T01:47:44.426Z,9.60
2022-10-10T01:50:39.360Z,9.50
2022-10-10T01:53:35.212Z,9.50
2022-10-10T01:56:32.559Z,9.50
2022-10-10T01:59:33.591Z,9.50
2022-10-10T02:02:29.962Z,9.50
2022-10-10T02:05:27.053Z,9.50
2022-10-10T02:08:21.031Z,9.50
2022-10-10T02:11:12.081Z,9.50
2022-10-10T02:14:07.390Z,9.60
2022-10-10T02:16:57.899Z,9.60
2022-10-10T02:19:53.956Z,9.60
2022-10-10T02:22:46.340Z,9.70
2022-10-10T02:25:39.698Z,9.70
2022-10-10T02:28:34.424Z,9.70
2022-10-10T02:31:29.495Z,9.60
2022-10-10T02:34:20.923Z,9.40
2022-10-10T02:37:12.587Z,9.40
2022-10-10T02:40:06.236Z,9.30
2022-10-10T02:42:55.661Z,9.20
2022-10-10T02:45:44.571Z,9.30
2022-10-10T02:48:33.508Z,9.30
2022-10-10T02:51:22.263Z,9.30
2022-10-10T02:54:10.835Z,9.30
2022-10-10T02:57:00.787Z,9.30
2022-10-10T02:59:49.345Z,9.30
2022-10-10T03:02:37.904Z,9.30
2022-10-10T03:05:26.459Z,9.20
2022-10-10T03:08:15.065Z,9.20
2022-10-10T03:11:03.653Z,9.10
2022-10-10T03:13:53.635Z,9.00
2022-10-10T03:16:42.164Z,8.90
2022-10-10T03:19:30.745Z,8.90
2022-10-10T03:22:19.310Z,9.00
2022-10-10T03:25:08.292Z,9.00
2022-10-10T03:27:56.827Z,9.00
2022-10-10T03:30:47.303Z,9.10
2022-10-10T03:33:36.352Z,9.10
2022-10-10T03:36:24.902Z,9.10
2022-10-10T03:39:13.486Z,9.10
2022-10-10T03:42:02.062Z,9.00
2022-10-10T03:44:50.577Z,9.00
2022-10-10T03:47:40.536Z,9.00
2022-10-10T03:50:29.680Z,9.00
2022-10-10T03:53:18.315Z,9.10
2022-10-10T03:56:07.251Z,9.00
2022-10-10T03:58:57.952Z,8.90
2022-10-10T04:01:46.502Z,8.90
2022-10-10T04:04:36.700Z,8.90
2022-10-10T04:07:25.263Z,8.80
2022-10-10T04:10:13.833Z,8.70
2022-10-10T04:13:02.452Z,8.60
2022-10-10T04:15:52.199Z,8.50
2022-10-10T04:18:40.751Z,8.50
2022-10-10T04:21:30.722Z,8.40
2022-10-10T04:24:19.285Z,8.40
2022-10-10T04:27:07.814Z,8.30
2022-10-10T04:29:56.395Z,8.30
2022-10-10T04:32:44.960Z,8.20
2022-10-10T04:35:33.553Z,8.20
2022-10-10T04:38:23.531Z,8.20
2022-10-10T04:41:12.111Z,8.10
2022-10-10T04:44:00.782Z,8.10
2022-10-10T04:46:49.374Z,8.10
2022-10-10T04:49:37.939Z,8.10
2022-10-10T04:52:26.442Z,8.10
2022-10-10T04:55:16.876Z,8.10
2022-10-10T04:58:05.412Z,8.20
2022-10-10T05:00:54.128Z,8.20
2022-10-10T05:03:42.707Z,8.20
2022-10-10T05:06:31.236Z,8.10
2022-10-10T05:09:19.822Z,8.10
2022-10-10T05:12:10.152Z,8.00
2022-10-10T05:14:58.722Z,8.00
2022-10-10T05:17:47.232Z,8.00
2022-10-10T05:20:36.431Z,8.00
2022-10-10T05:23:24.989Z,7.90
2022-10-10T05:26:14.116Z,7.90
2022-10-10T05:29:04.163Z,7.90
2022-10-10T05:31:52.774Z,7.90
2022-10-10T05:34:41.328Z,7.90
2022-10-10T05:37:29.848Z,7.90
2022-10-10T05:40:18.593Z,7.90
2022-10-10T05:43:07.281Z,7.90
2022-10-10T05:45:57.270Z,7.90
2022-10-10T05:48:45.823Z,7.80
2022-10-10T05:51:34.413Z,7.80
2022-10-10T05:54:23.041Z,7.80
2022-10-10T05:57:16.084Z,7.80
2022-10-10T06:00:06.347Z,7.80
2022-10-10T06:02:58.422Z,8.00
2022-10-10T06:05:49.205Z,7.90
2022-10-10T06:08:37.759Z,8.00
2022-10-10T06:11:26.766Z,8.20
2022-10-10T06:14:15.362Z,8.40
2022-10-10T06:17:04.698Z,8.60
2022-10-10T06:19:54.890Z,8.90
2022-10-10T06:22:43.428Z,9.20
2022-10-10T06:25:40.434Z,9.50
2022-10-10T06:28:29.629Z,9.90
2022-10-10T06:31:18.389Z,10.40
2022-10-10T06:34:07.194Z,10.90
2022-10-10T06:36:57.125Z,11.40
2022-10-10T06:39:45.675Z,11.80
2022-10-10T06:42:34.388Z,11.90
2022-10-10T06:45:24.577Z,11.60
2022-10-10T06:48:14.721Z,11.30
2022-10-10T06:51:04.809Z,10.90
2022-10-10T06:53:54.775Z,10.70
2022-10-10T06:56:43.397Z,10.60
2022-10-10T06:59:32.006Z,10.60
2022-10-10T07:02:20.721Z,10.50
2022-10-10T07:05:11.326Z,10.40
2022-10-10T07:07:59.956Z,10.40
2022-10-10T07:10:50.011Z,10.40
2022-10-10T07:13:39.431Z,10.50
2022-10-10T07:16:28.133Z,10.70
2022-10-10T07:19:17.113Z,11.00
2022-10-10T07:22:05.643Z,11.10
2022-10-10T07:24:54.382Z,11.10
2022-10-10T07:27:44.417Z,11.20
2022-10-10T07:30:33.279Z,11.20
2022-10-10T07:33:21.829Z,11.30
2022-10-10T07:36:10.588Z,11.30
2022-10-10T07:38:59.164Z,11.40
2022-10-10T07:41:48.022Z,11.30
2022-10-10T07:44:37.991Z,11.30
2022-10-10T07:47:26.561Z,11.30
2022-10-10T07:50:15.352Z,11.30
2022-10-10T07:53:03.896Z,11.40
2022-10-10T07:55:52.470Z,11.40
2022-10-10T07:58:41.211Z,11.50
2022-10-10T08:01:31.214Z,11.60
2022-10-10T08:04:19.908Z,11.70
2022-10-10T08:07:08.718Z,11.80
2022-10-10T08:09:57.340Z,11.90
2022-10-10T08:12:45.883Z,11.90
2022-10-10T08:15:34.447Z,12.00
2022-10-10T08:18:24.426Z,12.20
2022-10-10T08:21:14.854Z,12.40
2022-10-10T08:24:03.423Z,12.60
2022-10-10T08:26:52.127Z,12.80
2022-10-10T08:29:40.680Z,13.00
2022-10-10T08:32:29.245Z,13.30
2022-10-10T08:35:19.932Z,13.60
2022-10-10T08:38:09.069Z,13.90
2022-10-10T08:41:01.121Z,14.00
2022-10-10T08:43:53.539Z,14.00
2022-10-10T08:46:47.793Z,14.10
2022-10-10T08:49:42.814Z,14.10
2022-10-10T08:52:38.407Z,14.20
2022-10-10T08:55:33.729Z,14.30
2022-10-10T08:58:25.160Z,14.40
2022-10-10T09:01:19.412Z,14.40
2022-10-10T09:04:15.337Z,14.50
2022-10-10T09:07:19.183Z,14.60
2022-10-10T09:10:23.411Z,14.80
2022-10-10T09:13:25.978Z,14.80
2022-10-10T09:16:24.540Z,14.80
2022-10-10T09:19:36.384Z,14.90
2022-10-10T09:22:28.849Z,14.90
2022-10-10T09:25:24.071Z,15.30
2022-10-10T09:28:17.743Z,15.80
2022-10-10T09:31:12.459Z,16.00
2022-10-10T09:34:05.417Z,16.10
2022-10-10T09:36:59.150Z,16.10
2022-10-10T09:39:52.465Z,16.20
2022-10-10T09:42:45.172Z,16.50
2022-10-10T09:45:38.080Z,16.60
2022-10-10T09:48:30.925Z,16.70
2022-10-10T09:51:20.823Z,17.50
2022-10-10T09:54:09.683Z,18.10
2022-10-10T09:56:59.367Z,18.10
2022-10-10T09:59:49.321Z,18.00
2022-10-10T10:02:37.863Z,17.70
2022-10-10T10:05:29.112Z,17.40
2022-10-10T10:08:28.931Z,17.00
2022-10-10T10:11:29.645Z,16.70
2022-10-10T10:14:26.630Z,16.50
2022-10-10T10:17:18.967Z,16.30
2022-10-10T10:20:36.399Z,16.30
2022-10-10T10:23:27.728Z,16.20
2022-10-10T10:26:21.461Z,16.10
2022-10-10T10:29:29.179Z,16.10
2022-10-10T10:32:29.237Z,16.00
2022-10-10T10:35:25.678Z,16.10
2022-10-10T10:38:25.409Z,16.10
2022-10-10T10:41:22.784Z,16.00
2022-10-10T10:44:25.737Z,16.00
2022-10-10T10:47:30.260Z,16.00
2022-10-10T10:50:30.750Z,16.10
2022-10-10T10:53:31.789Z,16.10
2022-10-10T10:56:30.071Z,16.20
2022-10-10T11:00:25.796Z,16.20
2022-10-10T11:03:14.794Z,16.10
2022-10-10T11:06:21.216Z,16.10
2022-10-10T11:09:44.885Z,16.20
2022-10-10T11:12:44.437Z,16.30
2022-10-10T11:16:01.809Z,16.30
2022-10-10T11:19:03.901Z,16.50
2022-10-10T11:21:59.162Z,16.60
2022-10-10T11:24:53.848Z,16.80
2022-10-10T11:27:47.137Z,17.00
2022-10-10T11:30:41.737Z,17.30
2022-10-10T11:33:34.645Z,17.40
2022-10-10T11:36:25.841Z,17.20
2022-10-10T11:39:18.615Z,17.10
2022-10-10T11:42:17.408Z,16.90
2022-10-10T11:45:14.643Z,16.90
2022-10-10T11:48:14.767Z,16.80
2022-10-10T11:51:16.101Z,16.80
2022-10-10T11:54:11.368Z,16.90
2022-10-10T11:57:05.949Z,17.10
2022-10-10T12:00:01.822Z,17.40
2022-10-10T12:02:50.579Z,17.80
2022-10-10T12:05:42.968Z,17.80
2022-10-10T12:08:37.948Z,17.80
2022-10-10T12:11:32.793Z,17.60
2022-10-10T12:14:23.798Z,17.60
2022-10-10T12:17:22.731Z,17.60
2022-10-10T12:20:31.429Z,17.60
2022-10-10T12:23:25.774Z,17.50
2022-10-10T12:26:20.144Z,17.50
2022-10-10T12:29:11.950Z,17.40
2022-10-10T12:32:25.339Z,17.40
2022-10-10T12:35:41.110Z,17.40
2022-10-10T12:38:29.683Z,17.70
2022-10-10T12:41:18.277Z,18.10
2022-10-10T12:44:24.067Z,18.20
2022-10-10T12:47:59.673Z,18.20
2022-10-10T12:50:54.788Z,18.10
2022-10-10T12:53:51.872Z,18.00
2022-10-10T12:56:43.914Z,18.20
2022-10-10T12:59:36.198Z,18.30
2022-10-10T13:02:28.664Z,18.30
2022-10-10T13:05:21.833Z,18.00
2022-10-10T13:08:16.163Z,17.80
2022-10-10T13:11:07.995Z,17.80
2022-10-10T13:13:58.034Z,17.80
2022-10-10T13:16:46.894Z,17.90
2022-10-10T13:19:42.798Z,18.00
2022-10-10T13:22:37.205Z,18.10
2022-10-10T13:25:25.890Z,18.20
2022-10-10T13:28:18.620Z,18.10
2022-10-10T13:31:13.709Z,18.00
2022-10-10T13:34:07.521Z,17.80
2022-10-10T13:36:58.422Z,17.70
2022-10-10T13:39:50.063Z,17.80
2022-10-10T13:42:40.292Z,17.90
2022-10-10T13:45:39.019Z,17.90
2022-10-10T13:48:38.264Z,17.90
2022-10-10T13:51:43.393Z,17.90
2022-10-10T13:54:39.845Z,17.90
2022-10-10T13:57:30.092Z,17.80
2022-10-10T14:00:20.936Z,17.80
2022-10-10T14:03:15.404Z,17.80
2022-10-10T14:06:04.029Z,17.80
2022-10-10T14:08:54.429Z,18.00
2022-10-10T14:11:44.494Z,18.10
2022-10-10T14:14:44.609Z,18.10
2022-10-10T14:17:33.421Z,18.10
2022-10-10T14:20:21.986Z,18.00
2022-10-10T14:23:10.859Z,17.90
2022-10-10T14:25:59.556Z,17.90
2022-10-10T14:28:48.479Z,17.90
2022-10-10T14:31:38.591Z,17.90
2022-10-10T14:34:27.122Z,17.90
2022-10-10T14:37:19.792Z,17.90
2022-10-10T14:40:19.358Z,17.80
2022-10-10T14:43:08.177Z,17.80
2022-10-10T14:45:56.939Z,17.70
2022-10-10T14:48:46.934Z,17.60
2022-10-10T14:51:38.582Z,17.50
2022-10-10T14:54:27.114Z,17.40
2022-10-10T14:57:15.976Z,17.40
2022-10-10T15:00:05.060Z,17.30
2022-10-10T15:02:53.785Z,17.40
2022-10-10T15:05:43.839Z,17.30
2022-10-10T15:08:32.398Z,17.30
2022-10-10T15:11:20.972Z,17.30
2022-10-10T15:14:09.501Z,17.30
2022-10-10T15:16:58.096Z,17.30
2022-10-10T15:19:46.656Z,17.30
2022-10-10T15:22:37.256Z,17.40
2022-10-10T15:25:29.650Z,17.20
2022-10-10T15:28:21.299Z,17.10
2022-10-10T15:31:09.928Z,17.10
2022-10-10T15:33:59.417Z,16.90
2022-10-10T15:36:48.087Z,16.90
2022-10-10T15:39:38.304Z,16.90
2022-10-10T15:42:26.903Z,16.90
2022-10-10T15:45:26.588Z,17.00
2022-10-10T15:48:24.710Z,16.90
2022-10-10T15:51:13.401Z,16.70
2022-10-10T15:54:02.539Z,16.70
2022-10-10T15:56:52.456Z,16.70
2022-10-10T15:59:43.516Z,16.60
2022-10-10T16:02:32.870Z,16.50
2022-10-10T16:05:21.454Z,16.40
2022-10-10T16:08:12.452Z,16.30
2022-10-10T16:11:06.627Z,16.30
2022-10-10T16:13:57.077Z,16.20
2022-10-10T16:16:45.692Z,16.10
2022-10-10T16:19:34.286Z,16.00
2022-10-10T16:22:22.871Z,16.00
2022-10-10T16:25:26.808Z,16.00
2022-10-10T16:28:15.535Z,15.80
2022-10-10T16:31:06.497Z,15.80
2022-10-10T16:33:56.578Z,15.80
2022-10-10T16:36:45.148Z,15.70
2022-10-10T16:39:34.421Z,15.70
2022-10-10T16:42:22.950Z,15.70
2022-10-10T16:45:12.408Z,15.80
2022-10-10T16:48:02.345Z,15.80
2022-10-10T16:50:50.897Z,15.80
2022-10-10T16:53:39.877Z,15.60
2022-10-10T16:56:28.737Z,15.30
2022-10-10T16:59:17.279Z,15.10
2022-10-10T17:02:05.861Z,14.90
2022-10-10T17:04:57.661Z,14.80
2022-10-10T17:07:46.192Z,14.60
2022-10-10T17:10:34.753Z,14.60
2022-10-10T17:13:23.303Z,14.50
2022-10-10T17:16:53.416Z,14.30
2022-10-10T17:19:24.972Z,14.10
2022-10-10T17:22:14.852Z,13.80
2022-10-10T17:25:03.401Z,13.60
2022-10-10T17:27:51.933Z,13.50
2022-10-10T17:30:44.589Z,13.40
2022-10-10T17:33:34.688Z,13.30
2022-10-10T17:36:25.641Z,13.20
2022-10-10T17:39:15.621Z,13.20
2022-10-10T17:42:05.084Z,13.20
2022-10-10T17:44:56.881Z,13.20
2022-10-10T17:47:45.453Z,13.10
2022-10-10T17:50:36.470Z,13.10
2022-10-10T17:53:25.438Z,13.10
2022-10-10T17:56:17.667Z,13.00
2022-10-10T17:59:06.821Z,13.00
2022-10-10T18:01:55.413Z,13.00
2022-10-10T18:04:43.987Z,12.90
2022-10-10T18:07:32.634Z,12.80
2022-10-10T18:10:21.243Z,12.80
2022-10-10T18:13:11.176Z,12.80
2022-10-10T18:16:10.317Z,12.70
2022-10-10T18:18:59.948Z,12.70
2022-10-10T18:21:50.493Z,12.70
2022-10-10T18:24:39.158Z,12.70
2022-10-10T18:27:29.911Z,12.60
2022-10-10T18:30:20.067Z,12.60
2022-10-10T18:33:08.614Z,12.60
2022-10-10T18:35:57.161Z,12.60
2022-10-10T18:38:45.749Z,12.60
2022-10-10T18:41:35.046Z,12.70
2022-10-10T18:44:23.612Z,12.60
2022-10-10T18:47:13.527Z,12.60
2022-10-10T18:50:02.084Z,12.60
2022-10-10T18:52:50.659Z,12.60
2022-10-10T18:55:39.207Z,12.60
2022-10-10T18:58:27.779Z,12.60
2022-10-10T19:01:20.987Z,12.60
2022-10-10T19:04:14.975Z,12.60
2022-10-10T19:07:03.571Z,12.60
2022-10-10T19:09:52.227Z,12.60
2022-10-10T19:12:44.003Z,12.60
2022-10-10T19:15:35.712Z,12.60
2022-10-10T19:18:24.694Z,12.60
2022-10-10T19:21:15.156Z,12.60
2022-10-10T19:24:05.560Z,12.60
2022-10-10T19:26:56.812Z,12.60
2022-10-10T19:29:45.415Z,12.60
2022-10-10T19:32:33.990Z,12.60
2022-10-10T19:35:22.617Z,12.50
2022-10-10T19:38:12.579Z,12.50
2022-10-10T19:41:01.653Z,12.50
2022-10-10T19:43:53.173Z,12.50
2022-10-10T19:46:41.757Z,12.50
2022-10-10T19:49:31.413Z,12.50
2022-10-10T19:52:19.945Z,12.50
2022-10-10T19:55:10.747Z,12.50
2022-10-10T19:57:59.310Z,12.50
2022-10-10T20:00:47.930Z,12.50
2022-10-10T20:03:36.492Z,12.50
2022-10-10T20:06:25.153Z,12.50
2022-10-10T20:09:13.687Z,12.50
2022-10-10T20:12:03.627Z,12.50
2022-10-10T20:14:52.613Z,12.50
2022-10-10T20:17:41.356Z,12.50
2022-10-10T20:20:29.906Z,12.40
2022-10-10T20:23:20.736Z,12.40
2022-10-10T20:26:14.416Z,12.40
2022-10-10T20:29:05.370Z,12.50
2022-10-10T20:31:53.954Z,12.40
2022-10-10T20:34:42.531Z,12.50
2022-10-10T20:37:31.094Z,12.40
2022-10-10T20:40:19.676Z,12.40
2022-10-10T20:43:08.806Z,12.40
2022-10-10T20:46:03.847Z,12.30
2022-10-10T20:48:55.008Z,12.30
2022-10-10T20:51:48.388Z,12.30
2022-10-10T20:54:37.421Z,12.20
2022-10-10T20:57:26.076Z,12.10
2022-10-10T21:00:15.801Z,12.10
2022-10-10T21:03:05.758Z,12.10
2022-10-10T21:06:03.372Z,12.00
2022-10-10T21:08:53.176Z,12.00
2022-10-10T21:11:42.227Z,12.00
2022-10-10T21:14:30.835Z,12.00
2022-10-10T21:17:19.401Z,12.00
2022-10-10T21:20:10.399Z,12.00
2022-10-10T21:22:58.967Z,12.00
2022-10-10T21:25:47.481Z,11.90
2022-10-10T21:28:36.340Z,11.90
2022-10-10T21:31:26.541Z,11.90
2022-10-10T21:34:18.746Z,11.90
2022-10-10T21:37:08.743Z,11.80
2022-10-10T21:39:57.256Z,11.80
2022-10-10T21:42:45.837Z,11.80
2022-10-10T21:45:36.142Z,11.70
2022-10-10T21:48:24.662Z,11.70
2022-10-10T21:51:15.668Z,11.70
2022-10-10T21:54:06.059Z,11.70
2022-10-10T21:56:54.634Z,11.70
2022-10-10T21:59:43.192Z,11.60
2022-10-10T22:02:32.521Z,11.60
2022-10-10T22:05:21.075Z,11.50
2022-10-10T22:08:10.206Z,11.50
2022-10-10T22:11:03.431Z,11.50
2022-10-10T22:13:52.338Z,11.50
2022-10-10T22:16:41.013Z,11.40
2022-10-10T22:19:29.582Z,11.40
2022-10-10T22:22:18.168Z,11.40
2022-10-10T22:25:09.241Z,11.40
2022-10-10T22:28:05.224Z,11.30
2022-10-10T22:30:55.029Z,11.30
2022-10-10T22:33:43.664Z,11.30
2022-10-10T22:36:32.472Z,11.30
2022-10-10T22:39:21.410Z,11.20
2022-10-10T22:42:10.050Z,11.20
2022-10-10T22:44:59.996Z,11.20
2022-10-10T22:47:48.973Z,11.20
2022-10-10T22:50:37.560Z,11.20
2022-10-10T22:53:26.208Z,11.30
2022-10-10T22:56:16.818Z,11.30
2022-10-10T22:59:05.547Z,11.30
2022-10-10T23:01:55.569Z,11.30
2022-10-10T23:04:44.102Z,11.40
2022-10-10T23:07:32.690Z,11.50
2022-10-10T23:10:21.231Z,11.50
2022-10-10T23:13:09.797Z,11.50
2022-10-10T23:15:58.407Z,11.50
2022-10-10T23:18:48.483Z,11.60
2022-10-10T23:21:37.154Z,11.60
2022-10-10T23:24:25.934Z,11.60
2022-10-10T23:27:14.543Z,11.60
2022-10-10T23:30:03.075Z,11.50
2022-10-10T23:32:51.685Z,11.40
2022-10-10T23:35:41.712Z,11.40
2022-10-10T23:38:30.392Z,11.30
2022-10-10T23:41:18.991Z,11.30
2022-10-10T23:44:07.566Z,11.30
2022-10-10T23:46:56.149Z,11.20
2022-10-10T23:49:44.675Z,11.20
2022-10-10T23:52:34.843Z,11.20
2022-10-10T23:55:23.356Z,11.20
2022-10-10T23:58:11.904Z,11.10
